Stoney Brook, Minnesota
Current Conditions -  °F | °C
As of 12:56 PM on Wednesday 26 Nov 2014 (Local Time) from KCOQ Reporting Station
Overcast Overcast  
Wind Chill:   Ceiling: 2100
Heat Index: 18°   Visibility: 10mi
Dew Point: 10°   Wind: 10mph
Humidity: 73%   Direction: 320°NW
Pressure: 30.19"   Gusts: NA
Location:  46.8211°N, 92.6871°W
Report Text: KCOQ 261856Z AUTO 32009KT 10SM BKN021 OVC110 M08/M12 A3019 RMK AO2
Loading
Personal Weather Stations






























Interactive Weather Map New forecast layout! Learn more

10-Day Weather Forecast

Advertisements
Track Severe Weather on mobile